Tyler Pounds Regional Airport
KTYR : now visible

Airfield :











YOU CAN JOIN US ON...

 
LOGIN :

Register | Disclaimer

   EN    FR    IT 

 









Legend :    VFR   Marginal VFR   IFR   Intensive IFR   Very Intensive IFR
Visi :
Ceiling :
>= 8 km
>= 3000ft
5 to 8 km
1000 to 3000 ft
1500m to 5 km
500 to 1000 ft
800 to 1500m
200 to 500 ft
< 800m
< 200 ft
Symbols :   Thunderstorms  Fog  Heavy snow  Heavy precipitations  Wind > 20 kt






- Airport Elevation : 544 ft
- IATA code : TYR


KTYR - Tyler Pounds Regional

CURRENT METAR :
  • 152353Z 00000KT 10SM CLR 24/22 A2982 RMK AO2 SLP089 60059 T02390222 10283 20222 58007

EXPIRED METARs :
  • 152300Z 19005KT 10SM FEW004 24/23 A2982 RMK AO2 T02440228
  • 152153Z 26005KT 10SM CLR 24/22 A2984 RMK AO2 RAB16E37 SLP098 P0001 T02390222

TAF KTYR
Valid from the 16 at 00:00 until the 17 at 00:00 UTC


152340Z 1600/1624 20005KT P6SM FEW004 SCT060 OVC100
FM160100 32007KT P6SM VCTS OVC040CB
FM160600 35015KT 6SM BR VCSH OVC015
FM161000 02013G19KT P6SM OVC025
FM161400 01012KT P6SM SKC



MET'MAP, your aeronautical weather chart ! - Copyright ORBIFLY December 2007 - Disclaimer

ORBIFLY MET'MAP TEAM :

Programming & Development : Alexandra Zaïnal
Concept & Development : Baudouin d'Aumeries
Co-Development & Prog : Marc-Olivier Méhu
Technical & hardware support : Manuel Goepfert

Contact : metmap@orbifly.com




SOURCES & CREDITS :

   NOAA       Earth
Advisory